createdAt,value
2018-12-10T00:00:25.514Z,99.99
2018-12-10T00:01:25.678Z,99.99
2018-12-10T00:02:25.879Z,99.99
2018-12-10T00:03:26.033Z,99.99
2018-12-10T00:04:26.183Z,99.99
2018-12-10T00:05:26.347Z,99.64
2018-12-10T00:06:26.527Z,99.26
2018-12-10T00:07:26.685Z,99.99
2018-12-10T00:08:26.875Z,99.92
2018-12-10T00:09:27.057Z,99.99
2018-12-10T00:10:27.222Z,99.77
2018-12-10T00:11:27.395Z,99.87
2018-12-10T00:12:27.576Z,99.87
2018-12-10T00:13:27.737Z,99.58
2018-12-10T00:14:27.938Z,99.77
2018-12-10T00:15:28.086Z,99.58
2018-12-10T00:16:28.258Z,99.21
2018-12-10T00:17:28.425Z,98.83
2018-12-10T00:18:28.622Z,98.54
2018-12-10T00:19:28.787Z,98.73
2018-12-10T00:20:28.972Z,98.12
2018-12-10T00:21:29.131Z,98.16
2018-12-10T00:22:29.313Z,99.21
2018-12-10T00:23:29.459Z,99.26
2018-12-10T00:24:29.625Z,99.30
2018-12-10T00:25:29.789Z,97.88
2018-12-10T00:26:29.949Z,98.92
2018-12-10T00:27:30.118Z,97.88
2018-12-10T00:28:30.287Z,98.97
2018-12-10T00:29:30.455Z,99.02
2018-12-10T00:30:30.623Z,98.07
2018-12-10T00:31:30.785Z,97.69
2018-12-10T00:32:30.965Z,97.60
2018-12-10T00:33:31.118Z,97.17
2018-12-10T00:34:31.284Z,97.22
2018-12-10T00:35:31.475Z,97.83
2018-12-10T00:36:31.661Z,97.97
2018-12-10T00:37:31.850Z,98.45
2018-12-10T00:38:32.015Z,97.97
2018-12-10T00:39:32.185Z,98.31
2018-12-10T00:40:32.344Z,97.69
2018-12-10T00:41:32.520Z,97.69
2018-12-10T00:42:32.720Z,98.45
2018-12-10T00:43:32.839Z,98.79
2018-12-10T00:44:33.010Z,98.69
2018-12-10T00:45:33.177Z,98.88
2018-12-10T00:46:33.353Z,98.59
2018-12-10T00:47:33.520Z,98.02
2018-12-10T00:48:33.679Z,98.12
2018-12-10T00:49:33.845Z,97.78
2018-12-10T00:50:34.013Z,97.83
2018-12-10T00:51:34.189Z,97.83
2018-12-10T00:52:34.338Z,97.92
2018-12-10T00:53:34.501Z,98.31
2018-12-10T00:54:34.675Z,98.59
2018-12-10T00:55:34.832Z,96.93
2018-12-10T00:56:34.999Z,96.79
2018-12-10T00:57:35.159Z,97.02
2018-12-10T00:58:35.330Z,97.27
2018-12-10T00:59:35.534Z,98.26
2018-12-10T01:00:35.821Z,97.74
2018-12-10T01:01:35.938Z,96.93
2018-12-10T01:02:36.003Z,97.31
2018-12-10T01:03:36.170Z,98.07
2018-12-10T01:04:36.349Z,98.45
2018-12-10T01:05:36.525Z,97.69
2018-12-10T01:06:36.692Z,98.45
2018-12-10T01:07:36.846Z,98.54
2018-12-10T01:08:37.023Z,98.69
2018-12-10T01:09:37.176Z,98.64
2018-12-10T01:10:37.344Z,98.45
2018-12-10T01:11:37.537Z,97.97
2018-12-10T01:12:37.692Z,98.35
2018-12-10T01:13:37.848Z,97.69
2018-12-10T01:14:38.020Z,98.02
2018-12-10T01:15:38.208Z,97.92
2018-12-10T01:16:38.288Z,98.07
2018-12-10T01:17:38.452Z,97.50
2018-12-10T01:18:38.629Z,96.64
2018-12-10T01:19:38.824Z,97.07
2018-12-10T01:20:38.988Z,96.93
2018-12-10T01:21:39.184Z,97.64
2018-12-10T01:22:39.338Z,98.16
2018-12-10T01:23:39.498Z,97.22
2018-12-10T01:24:39.660Z,97.50
2018-12-10T01:25:39.959Z,96.64
2018-12-10T01:26:40.017Z,97.41
2018-12-10T01:27:40.177Z,97.12
2018-12-10T01:28:40.434Z,98.26
2018-12-10T01:29:40.491Z,98.07
2018-12-10T01:30:40.684Z,97.69
2018-12-10T01:31:40.845Z,98.35
2018-12-10T01:32:41.008Z,97.41
2018-12-10T01:33:41.185Z,96.93
2018-12-10T01:34:41.348Z,97.60
2018-12-10T01:35:41.606Z,97.60
2018-12-10T01:36:41.678Z,97.88
2018-12-10T01:37:41.950Z,98.07
2018-12-10T01:38:42.023Z,97.60
2018-12-10T01:39:42.188Z,97.88
2018-12-10T01:40:42.340Z,98.07
2018-12-10T01:41:43.367Z,98.07
2018-12-10T01:42:42.665Z,98.64
2018-12-10T01:43:42.856Z,98.64
2018-12-10T01:44:46.629Z,98.16
2018-12-10T01:45:48.664Z,97.69
2018-12-10T01:46:46.802Z,98.07
2018-12-10T01:47:47.819Z,98.83
2018-12-10T01:48:43.710Z,99.11
2018-12-10T01:49:43.806Z,98.64
2018-12-10T01:50:47.617Z,98.83
2018-12-10T01:51:44.090Z,99.21
2018-12-10T01:52:44.237Z,98.83
2018-12-10T01:53:44.414Z,99.02
2018-12-10T01:54:44.571Z,98.54
2018-12-10T01:55:44.770Z,99.02
2018-12-10T01:56:44.946Z,98.92
2018-12-10T01:57:45.114Z,99.21
2018-12-10T01:58:45.285Z,99.21
2018-12-10T01:59:45.478Z,99.11
2018-12-10T02:00:45.612Z,99.21
2018-12-10T02:01:45.775Z,99.40
2018-12-10T02:02:45.935Z,99.68
2018-12-10T02:03:46.127Z,99.40
2018-12-10T02:04:46.261Z,99.87
2018-12-10T02:05:46.428Z,99.49
2018-12-10T02:06:46.590Z,99.49
2018-12-10T02:07:46.761Z,99.99
2018-12-10T02:08:46.920Z,99.99
2018-12-10T02:09:47.097Z,99.99
2018-12-10T02:10:47.265Z,99.99
2018-12-10T02:11:47.436Z,99.99
2018-12-10T02:12:47.612Z,99.99
2018-12-10T02:13:47.765Z,99.99
2018-12-10T02:14:47.934Z,99.99
2018-12-10T02:15:48.120Z,99.99
2018-12-10T02:16:48.304Z,99.99
2018-12-10T02:17:48.463Z,99.99
2018-12-10T02:18:48.638Z,99.99
2018-12-10T02:19:48.800Z,99.99
2018-12-10T02:20:48.965Z,99.99
2018-12-10T02:21:49.132Z,99.99
2018-12-10T02:22:49.397Z,99.99
2018-12-10T02:23:49.474Z,99.99
2018-12-10T02:24:49.638Z,99.99
2018-12-10T02:25:49.802Z,99.99
2018-12-10T02:26:49.963Z,99.99
2018-12-10T02:27:50.122Z,99.99
2018-12-10T02:28:50.298Z,99.99
2018-12-10T02:29:50.464Z,99.99
2018-12-10T02:30:50.639Z,99.99
2018-12-10T02:31:50.802Z,99.99
2018-12-10T02:32:50.979Z,99.99
2018-12-10T02:33:51.125Z,99.99
2018-12-10T02:34:51.301Z,99.99
2018-12-10T02:35:51.477Z,99.99
2018-12-10T02:36:51.642Z,99.99
2018-12-10T02:37:51.807Z,99.99
2018-12-10T02:38:51.976Z,99.99
2018-12-10T02:39:52.140Z,99.99
2018-12-10T02:40:52.304Z,99.99
2018-12-10T02:41:52.479Z,99.99
2018-12-10T02:42:52.629Z,99.99
2018-12-10T02:43:52.789Z,99.99
2018-12-10T02:44:52.958Z,99.99
2018-12-10T02:45:53.171Z,99.99
2018-12-10T02:46:53.341Z,99.99
2018-12-10T02:47:53.516Z,99.99
2018-12-10T02:48:53.678Z,99.99
2018-12-10T02:49:53.840Z,99.99
2018-12-10T02:50:54.005Z,99.99
2018-12-10T02:51:54.173Z,99.99
2018-12-10T02:52:54.342Z,99.99
2018-12-10T02:53:54.513Z,99.99
2018-12-10T02:54:54.693Z,99.99
2018-12-10T02:55:54.857Z,99.99
2018-12-10T02:56:55.017Z,99.99
2018-12-10T02:57:55.185Z,99.99
2018-12-10T02:58:55.357Z,99.99
2018-12-10T02:59:55.515Z,99.99
2018-12-10T03:00:55.722Z,99.99
2018-12-10T03:01:55.845Z,99.99
2018-12-10T03:02:56.038Z,99.99
2018-12-10T03:03:56.229Z,99.99
2018-12-10T03:04:56.381Z,99.99
2018-12-10T03:05:56.578Z,99.99
2018-12-10T03:06:56.727Z,99.99
2018-12-10T03:07:56.904Z,99.99
2018-12-10T03:08:57.064Z,99.99
2018-12-10T03:09:57.224Z,99.99
2018-12-10T03:10:57.392Z,99.99
2018-12-10T03:11:57.623Z,99.99
2018-12-10T03:12:57.716Z,99.99
2018-12-10T03:13:57.886Z,99.99
2018-12-10T03:14:58.050Z,99.99
2018-12-10T03:15:58.217Z,99.99
2018-12-10T03:16:58.372Z,99.99
2018-12-10T03:17:58.542Z,99.99
2018-12-10T03:18:58.704Z,99.99
2018-12-10T03:19:58.912Z,99.99
2018-12-10T03:20:59.047Z,99.99
2018-12-10T03:21:59.205Z,99.99
2018-12-10T03:22:59.364Z,99.99
2018-12-10T03:23:59.525Z,99.99
2018-12-10T03:24:59.697Z,99.99
2018-12-10T03:25:59.846Z,99.99
2018-12-10T03:27:00.018Z,99.99
2018-12-10T03:28:00.210Z,99.99
2018-12-10T03:29:00.353Z,99.99
2018-12-10T03:30:00.518Z,99.99
2018-12-10T03:31:00.677Z,99.99
2018-12-10T03:32:00.839Z,99.99
2018-12-10T03:33:01.043Z,99.99
2018-12-10T03:34:01.202Z,99.99
2018-12-10T03:35:01.370Z,99.99
2018-12-10T03:36:01.561Z,99.99
2018-12-10T03:37:01.695Z,99.99
2018-12-10T03:38:01.871Z,99.99
2018-12-10T03:39:02.031Z,99.99
2018-12-10T03:40:02.201Z,99.99
2018-12-10T03:41:02.391Z,99.99
2018-12-10T03:42:02.556Z,99.99
2018-12-10T03:43:02.740Z,99.99
2018-12-10T03:44:02.907Z,99.99
2018-12-10T03:45:03.096Z,99.99
2018-12-10T03:46:03.231Z,99.99
2018-12-10T03:47:03.393Z,99.99
2018-12-10T03:48:03.556Z,99.99
2018-12-10T03:49:03.716Z,99.99
2018-12-10T03:50:03.892Z,99.99
2018-12-10T03:51:04.083Z,99.99
2018-12-10T03:52:04.226Z,99.99
2018-12-10T03:53:04.393Z,99.99
2018-12-10T03:54:04.576Z,99.99
2018-12-10T03:55:04.736Z,99.99
2018-12-10T03:56:04.934Z,99.99
2018-12-10T03:57:05.089Z,99.99
2018-12-10T03:58:05.253Z,99.99
2018-12-10T03:59:05.423Z,99.99
2018-12-10T04:00:05.579Z,99.99
2018-12-10T04:01:05.751Z,99.99
2018-12-10T04:02:05.915Z,99.99
2018-12-10T04:03:06.090Z,99.99
2018-12-10T04:04:06.255Z,99.99
2018-12-10T04:05:06.417Z,99.99
2018-12-10T04:06:06.586Z,99.99
2018-12-10T04:07:06.745Z,99.99
2018-12-10T04:08:06.916Z,99.99
2018-12-10T04:09:07.068Z,99.99
2018-12-10T04:10:07.239Z,99.99
2018-12-10T04:11:07.505Z,99.99
2018-12-10T04:12:07.527Z,99.99
2018-12-10T04:13:07.676Z,99.99
2018-12-10T04:14:07.836Z,99.99
2018-12-10T04:15:08.013Z,99.99
2018-12-10T04:16:08.179Z,99.99
2018-12-10T04:17:10.484Z,99.99
2018-12-10T04:18:08.451Z,99.99
2018-12-10T04:19:08.609Z,99.99
2018-12-10T04:20:08.773Z,99.99
2018-12-10T04:21:08.937Z,99.99
2018-12-10T04:22:09.145Z,99.99
2018-12-10T04:23:09.260Z,99.99
2018-12-10T04:24:09.422Z,99.99
2018-12-10T04:25:09.576Z,99.99
2018-12-10T04:26:09.767Z,99.99
2018-12-10T04:27:10.039Z,99.99
2018-12-10T04:28:10.161Z,99.99
2018-12-10T04:29:10.472Z,99.99
2018-12-10T04:30:10.418Z,99.99
2018-12-10T04:31:10.607Z,99.99
2018-12-10T04:32:10.779Z,99.99
2018-12-10T04:33:10.977Z,99.99
2018-12-10T04:34:11.139Z,99.99
2018-12-10T04:35:11.306Z,99.99
2018-12-10T04:36:11.489Z,99.99
2018-12-10T04:37:11.628Z,99.99
2018-12-10T04:38:11.793Z,99.99
2018-12-10T04:39:11.958Z,99.99
2018-12-10T04:40:12.121Z,99.35
2018-12-10T04:41:12.285Z,99.16
2018-12-10T04:42:12.456Z,99.35
2018-12-10T04:43:12.611Z,99.16
2018-12-10T04:44:12.781Z,99.44
2018-12-10T04:45:12.945Z,99.91
2018-12-10T04:46:13.115Z,99.44
2018-12-10T04:47:13.272Z,99.82
2018-12-10T04:48:13.444Z,99.91
2018-12-10T04:49:13.606Z,99.44
2018-12-10T04:50:13.781Z,98.78
2018-12-10T04:51:13.949Z,98.87
2018-12-10T04:52:14.108Z,98.78
2018-12-10T04:53:14.266Z,98.87
2018-12-10T04:54:14.425Z,99.16
2018-12-10T04:55:14.596Z,99.73
2018-12-10T04:56:14.749Z,99.54
2018-12-10T04:57:14.917Z,99.44
2018-12-10T04:58:15.094Z,99.54
2018-12-10T04:59:15.263Z,99.63
2018-12-10T05:00:15.421Z,99.44
2018-12-10T05:01:15.580Z,99.73
2018-12-10T05:02:15.759Z,99.63
2018-12-10T05:03:15.904Z,99.54
2018-12-10T05:04:16.072Z,99.44
2018-12-10T05:05:16.242Z,99.63
2018-12-10T05:06:16.404Z,99.35
2018-12-10T05:07:16.571Z,99.35
2018-12-10T05:08:16.755Z,99.30
2018-12-10T05:09:16.914Z,99.96
2018-12-10T05:10:17.082Z,99.99
2018-12-10T05:11:17.251Z,99.99
2018-12-10T05:12:17.409Z,99.99
2018-12-10T05:13:17.574Z,99.99
2018-12-10T05:14:17.739Z,99.99
2018-12-10T05:15:17.904Z,99.99
2018-12-10T05:16:18.070Z,99.96
2018-12-10T05:17:18.241Z,99.99
2018-12-10T05:18:18.405Z,99.99
2018-12-10T05:19:19.043Z,99.99
2018-12-10T05:20:18.722Z,99.99
2018-12-10T05:21:18.886Z,99.99
2018-12-10T05:22:19.048Z,99.99
2018-12-10T05:23:19.215Z,99.99
2018-12-10T05:24:19.380Z,99.99
2018-12-10T05:25:19.549Z,99.99
2018-12-10T05:26:19.850Z,99.99
2018-12-10T05:27:19.884Z,99.99
2018-12-10T05:28:20.061Z,99.99
2018-12-10T05:29:20.250Z,99.99
2018-12-10T05:30:20.395Z,99.99
2018-12-10T05:31:20.576Z,99.99
2018-12-10T05:32:20.746Z,99.99
2018-12-10T05:33:20.918Z,99.99
2018-12-10T05:34:21.082Z,99.99
2018-12-10T05:35:21.249Z,99.99
2018-12-10T05:36:21.414Z,99.99
2018-12-10T05:37:21.584Z,99.99
2018-12-10T05:38:21.748Z,99.99
2018-12-10T05:39:21.932Z,99.99
2018-12-10T05:40:23.597Z,99.99
2018-12-10T05:41:24.818Z,99.99
2018-12-10T05:42:26.190Z,99.99
2018-12-10T05:43:24.052Z,99.99
2018-12-10T05:44:25.795Z,99.99
2018-12-10T05:47:15.556Z,99.99
2018-12-10T05:47:55.816Z,99.99
2018-12-10T05:48:55.718Z,99.99
2018-12-10T05:49:56.835Z,99.99
2018-12-10T05:50:56.162Z,99.99
2018-12-10T05:51:56.130Z,99.99
2018-12-10T05:52:57.889Z,99.99
2018-12-10T05:53:57.567Z,99.99
2018-12-10T05:54:58.434Z,99.99
2018-12-10T05:55:57.931Z,99.99
2018-12-10T05:56:59.102Z,99.99
2018-12-10T05:57:59.944Z,99.99
2018-12-10T05:58:57.966Z,99.99
2018-12-10T05:59:59.606Z,99.99
2018-12-10T06:00:57.434Z,99.99
2018-12-10T06:01:59.626Z,99.96
2018-12-10T06:02:59.290Z,99.68
2018-12-10T06:03:58.845Z,99.99
2018-12-10T06:04:59.628Z,99.99
2018-12-10T06:05:58.434Z,99.99
2018-12-10T06:06:58.423Z,99.99
2018-12-10T06:07:58.694Z,99.99
2018-12-10T06:08:58.637Z,99.96
2018-12-10T06:09:58.882Z,99.99
2018-12-10T06:10:58.948Z,99.99
2018-12-10T06:11:59.264Z,99.99
2018-12-10T06:12:59.361Z,99.68
2018-12-10T06:13:59.522Z,99.99
2018-12-10T06:14:59.576Z,99.99
2018-12-10T06:15:59.795Z,99.99
2018-12-10T06:16:59.954Z,99.99
2018-12-10T06:18:00.149Z,99.99
2018-12-10T06:19:00.391Z,99.99
2018-12-10T06:20:00.488Z,99.99
2018-12-10T06:21:00.718Z,99.99
2018-12-10T06:22:00.778Z,99.73
2018-12-10T06:23:01.202Z,99.99
2018-12-10T06:24:01.160Z,99.99
2018-12-10T06:25:01.401Z,99.82
2018-12-10T06:26:01.578Z,99.44
2018-12-10T06:27:01.701Z,99.82
2018-12-10T06:28:01.796Z,99.39
2018-12-10T06:29:02.021Z,99.54
2018-12-10T06:30:02.120Z,99.73
2018-12-10T06:31:02.164Z,99.91
2018-12-10T06:32:02.419Z,99.99
2018-12-10T06:33:02.533Z,99.99
2018-12-10T06:34:02.658Z,99.99
2018-12-10T06:35:02.792Z,99.99
2018-12-10T06:36:02.911Z,99.99
2018-12-10T06:37:03.275Z,99.99
2018-12-10T06:38:03.149Z,99.99
2018-12-10T06:39:03.232Z,99.99
2018-12-10T06:40:03.326Z,99.91
2018-12-10T06:41:03.526Z,99.16
2018-12-10T06:42:03.729Z,99.44
2018-12-10T06:43:03.916Z,99.54
2018-12-10T06:44:04.123Z,99.35
2018-12-10T06:45:04.313Z,99.44
2018-12-10T06:46:04.512Z,98.87
2018-12-10T06:47:04.753Z,98.97
2018-12-10T06:48:04.835Z,98.59
2018-12-10T06:49:05.068Z,97.74
2018-12-10T06:50:05.190Z,98.97
2018-12-10T06:51:05.307Z,97.74
2018-12-10T06:52:05.425Z,98.59
2018-12-10T06:53:05.623Z,98.21
2018-12-10T06:54:05.756Z,98.49
2018-12-10T06:55:05.986Z,98.59
2018-12-10T06:56:06.140Z,97.74
2018-12-10T06:57:06.229Z,98.21
2018-12-10T06:58:06.294Z,98.30
2018-12-10T06:59:07.432Z,98.11
2018-12-10T07:00:06.662Z,97.45
2018-12-10T07:01:06.882Z,97.83
2018-12-10T07:02:07.106Z,98.02
2018-12-10T07:03:07.289Z,97.83
2018-12-10T07:04:07.604Z,98.11
2018-12-10T07:05:07.861Z,97.83
2018-12-10T07:06:07.674Z,97.07
2018-12-10T07:07:07.928Z,97.36
2018-12-10T07:08:08.005Z,97.55
2018-12-10T07:09:08.395Z,98.02
2018-12-10T07:10:08.352Z,97.74
2018-12-10T07:11:08.569Z,98.02
2018-12-10T07:12:08.767Z,98.11
2018-12-10T07:13:08.971Z,98.68
2018-12-10T07:14:09.183Z,98.11
2018-12-10T07:15:09.410Z,98.11
2018-12-10T07:16:09.496Z,98.40
2018-12-10T07:17:09.711Z,98.11
2018-12-10T07:18:09.906Z,98.02
2018-12-10T07:19:10.085Z,98.02
2018-12-10T07:20:10.289Z,98.59
2018-12-10T07:21:10.484Z,98.21
2018-12-10T07:22:10.715Z,98.87
2018-12-10T07:23:10.789Z,98.87
2018-12-10T07:24:10.948Z,98.87
2018-12-10T07:25:11.031Z,98.40
2018-12-10T07:26:11.244Z,98.97
2018-12-10T07:27:11.423Z,98.97
2018-12-10T07:28:11.622Z,98.87
2018-12-10T07:29:11.797Z,98.87
2018-12-10T07:30:12.031Z,98.87
2018-12-10T07:31:12.096Z,99.35
2018-12-10T07:32:12.343Z,99.82
2018-12-10T07:33:12.494Z,99.16
2018-12-10T07:34:12.705Z,99.16
2018-12-10T07:35:12.970Z,98.97
2018-12-10T07:36:13.031Z,99.73
2018-12-10T07:37:13.247Z,99.99
2018-12-10T07:38:13.345Z,99.44
2018-12-10T07:39:13.521Z,99.91
2018-12-10T07:40:13.737Z,99.35
2018-12-10T07:41:13.835Z,99.54
2018-12-10T07:42:14.034Z,99.35
2018-12-10T07:43:14.247Z,98.87
2018-12-10T07:44:14.432Z,99.06
2018-12-10T07:45:14.614Z,99.54
2018-12-10T07:46:14.892Z,98.78
2018-12-10T07:47:14.973Z,99.35
2018-12-10T07:48:15.192Z,99.73
2018-12-10T07:49:15.371Z,99.35
2018-12-10T07:50:15.558Z,99.35
2018-12-10T07:51:15.778Z,99.06
2018-12-10T07:52:15.969Z,99.16
2018-12-10T07:53:16.152Z,98.87
2018-12-10T07:54:16.331Z,97.74
2018-12-10T07:55:16.534Z,98.02
2018-12-10T07:56:17.717Z,98.97
2018-12-10T07:57:16.861Z,98.68
2018-12-10T07:58:17.034Z,98.68
2018-12-10T07:59:17.237Z,98.68
2018-12-10T08:00:17.424Z,98.21
2018-12-10T08:01:17.642Z,98.11
2018-12-10T08:02:21.436Z,97.92
2018-12-10T08:03:20.875Z,98.11
2018-12-10T08:04:19.707Z,96.88
2018-12-10T08:05:20.158Z,97.26
2018-12-10T08:06:19.964Z,96.03
2018-12-10T08:07:19.899Z,95.74
2018-12-10T08:08:19.725Z,96.03
2018-12-10T08:09:21.068Z,95.93
2018-12-10T08:10:20.896Z,96.36
2018-12-10T08:11:22.290Z,97.22
2018-12-10T08:12:22.259Z,96.64
2018-12-10T08:13:21.561Z,96.64
2018-12-10T08:14:21.350Z,96.26
2018-12-10T08:15:21.725Z,96.74
2018-12-10T08:16:21.001Z,96.08
2018-12-10T08:17:22.110Z,95.98
2018-12-10T08:18:21.679Z,95.70
2018-12-10T08:19:23.102Z,95.89
2018-12-10T08:20:23.828Z,95.60
2018-12-10T08:21:22.331Z,95.03
2018-12-10T08:22:22.852Z,94.56
2018-12-10T08:23:23.332Z,95.03
2018-12-10T08:24:23.831Z,94.93
2018-12-10T08:25:23.834Z,95.79
2018-12-10T08:26:23.996Z,95.51
2018-12-10T08:27:25.904Z,95.70
2018-12-10T08:28:25.794Z,95.60
2018-12-10T08:29:23.578Z,94.27
2018-12-10T08:30:24.459Z,94.37
2018-12-10T08:31:24.342Z,94.74
2018-12-10T08:32:24.538Z,94.65
2018-12-10T08:33:24.248Z,94.37
2018-12-10T08:34:24.923Z,93.65
2018-12-10T08:35:24.807Z,93.08
2018-12-10T08:36:26.135Z,92.32
2018-12-10T08:37:24.762Z,92.23
2018-12-10T08:38:25.182Z,92.18
2018-12-10T08:39:26.886Z,92.75
2018-12-10T08:40:26.596Z,93.13
2018-12-10T08:41:25.199Z,93.13
2018-12-10T08:42:24.969Z,93.32
2018-12-10T08:43:26.409Z,92.37
2018-12-10T08:44:25.746Z,92.56
2018-12-10T08:45:27.710Z,92.09
2018-12-10T08:46:25.682Z,92.37
2018-12-10T08:47:28.179Z,93.04
2018-12-10T08:48:25.444Z,92.66
2018-12-10T08:49:25.618Z,92.85
2018-12-10T08:50:25.561Z,92.85
2018-12-10T08:51:25.902Z,92.47
2018-12-10T08:52:26.005Z,92.37
2018-12-10T08:53:26.114Z,92.18
2018-12-10T08:54:26.207Z,92.42
2018-12-10T08:55:26.312Z,91.28
2018-12-10T08:56:26.553Z,89.85
2018-12-10T08:57:26.798Z,87.09
2018-12-10T08:58:26.775Z,85.33
2018-12-10T08:59:26.965Z,83.65
2018-12-10T09:00:27.127Z,82.32
2018-12-10T09:01:27.257Z,80.22
2018-12-10T09:02:27.361Z,78.50
2018-12-10T09:03:27.559Z,77.01
2018-12-10T09:04:27.773Z,75.81
2018-12-10T09:05:27.954Z,75.05
2018-12-10T09:06:28.169Z,74.01
2018-12-10T09:07:28.438Z,72.38
2018-12-10T09:08:28.526Z,72.32
2018-12-10T09:09:28.762Z,73.24
2018-12-10T09:10:28.847Z,73.05
2018-12-10T09:11:29.082Z,73.52
2018-12-10T09:12:29.144Z,72.23
2018-12-10T09:13:29.356Z,71.69
2018-12-10T09:14:29.553Z,70.83
2018-12-10T09:15:29.797Z,68.63
2018-12-10T09:16:29.890Z,70.03
2018-12-10T09:17:30.287Z,71.04
2018-12-10T09:18:30.512Z,71.30
2018-12-10T09:19:30.510Z,72.63
2018-12-10T09:20:30.544Z,74.31
2018-12-10T09:21:30.814Z,75.32
2018-12-10T09:22:30.844Z,75.79
2018-12-10T09:23:31.173Z,77.76
2018-12-10T09:24:31.232Z,78.99
2018-12-10T09:25:31.410Z,80.10
2018-12-10T09:26:31.838Z,79.91
2018-12-10T09:27:31.777Z,80.24
2018-12-10T09:28:31.985Z,81.29
2018-12-10T09:29:32.264Z,82.15
2018-12-10T09:30:32.497Z,81.96
2018-12-10T09:31:32.365Z,82.81
2018-12-10T09:32:32.549Z,83.58
2018-12-10T09:33:32.665Z,84.33
2018-12-10T09:34:33.031Z,84.77
2018-12-10T09:35:33.180Z,84.58
2018-12-10T09:36:33.334Z,85.00
2018-12-10T09:37:33.401Z,85.19
2018-12-10T09:38:33.644Z,85.47
2018-12-10T09:39:33.605Z,85.66
2018-12-10T09:40:33.792Z,85.00
2018-12-10T09:41:33.943Z,84.33
2018-12-10T09:42:33.998Z,83.52
2018-12-10T09:43:34.178Z,82.08
2018-12-10T09:44:34.471Z,79.22
2018-12-10T09:45:34.423Z,78.75
2018-12-10T09:46:34.556Z,78.08
2018-12-10T09:47:34.496Z,77.51
2018-12-10T09:48:34.772Z,76.98
2018-12-10T09:49:34.837Z,76.82
2018-12-10T09:50:35.022Z,75.96
2018-12-10T09:51:35.332Z,75.30
2018-12-10T09:52:35.329Z,75.64
2018-12-10T09:53:35.523Z,76.18
2018-12-10T09:54:35.732Z,76.46
2018-12-10T09:55:36.480Z,76.65
2018-12-10T09:56:36.041Z,77.09
2018-12-10T09:57:36.246Z,77.85
2018-12-10T09:58:36.529Z,78.19
2018-12-10T09:59:36.433Z,79.14
2018-12-10T10:00:36.734Z,80.29
2018-12-10T10:01:37.049Z,80.76
2018-12-10T10:02:37.224Z,81.20
2018-12-10T10:03:37.122Z,81.71
2018-12-10T10:04:37.264Z,81.90
2018-12-10T10:05:37.390Z,80.80
2018-12-10T10:06:37.451Z,79.03
2018-12-10T10:07:37.596Z,77.36
2018-12-10T10:08:37.947Z,76.39
2018-12-10T10:09:39.075Z,74.42
2018-12-10T10:10:38.178Z,73.41
2018-12-10T10:11:38.402Z,71.69
2018-12-10T10:12:38.767Z,71.59
2018-12-10T10:13:38.634Z,70.77
2018-12-10T10:14:39.442Z,68.67
2018-12-10T10:15:39.198Z,67.21
2018-12-10T10:16:39.455Z,68.16
2018-12-10T10:17:39.468Z,68.67
2018-12-10T10:18:39.687Z,68.73
2018-12-10T10:19:39.931Z,70.54
2018-12-10T10:20:40.145Z,69.37
2018-12-10T10:21:40.194Z,70.22
2018-12-10T10:22:40.379Z,71.39
2018-12-10T10:23:40.318Z,72.02
2018-12-10T10:24:40.861Z,73.26
2018-12-10T10:25:40.889Z,74.84
2018-12-10T10:26:41.097Z,75.89
2018-12-10T10:27:41.286Z,76.18
2018-12-10T10:28:41.388Z,76.61
2018-12-10T10:29:41.510Z,77.95
2018-12-10T10:30:43.958Z,78.61
2018-12-10T10:31:41.809Z,78.71
2018-12-10T10:32:41.936Z,79.47
2018-12-10T10:33:42.254Z,79.38
2018-12-10T10:34:42.212Z,79.57
2018-12-10T10:35:42.440Z,79.19
2018-12-10T10:36:44.546Z,79.28
2018-12-10T10:37:42.805Z,79.03
2018-12-10T10:38:42.900Z,77.80
2018-12-10T10:39:42.718Z,77.93
2018-12-10T10:40:42.928Z,76.59
2018-12-10T10:41:42.983Z,76.27
2018-12-10T10:42:43.150Z,76.94
2018-12-10T10:43:43.318Z,77.95
2018-12-10T10:44:43.638Z,78.14
2018-12-10T10:45:43.983Z,78.14
2018-12-10T10:46:44.296Z,77.85
2018-12-10T10:47:44.265Z,77.03
2018-12-10T10:48:44.401Z,76.94
2018-12-10T10:49:44.272Z,76.50
2018-12-10T10:50:44.779Z,76.06
2018-12-10T10:51:44.731Z,75.53
2018-12-10T10:52:44.909Z,74.54
2018-12-10T10:53:45.136Z,73.77
2018-12-10T10:54:45.666Z,73.93
2018-12-10T10:55:45.525Z,73.36
2018-12-10T10:56:45.477Z,74.88
2018-12-10T10:57:45.693Z,76.31
2018-12-10T10:58:45.967Z,75.36
2018-12-10T10:59:46.034Z,75.26
2018-12-10T11:00:46.106Z,75.74
2018-12-10T11:01:46.304Z,73.83
2018-12-10T11:02:46.555Z,73.11
2018-12-10T11:03:46.593Z,74.02
2018-12-10T11:04:46.733Z,74.60
2018-12-10T11:05:46.583Z,74.92
2018-12-10T11:06:46.789Z,74.35
2018-12-10T11:07:47.008Z,73.58
2018-12-10T11:08:47.250Z,72.63
2018-12-10T11:09:47.427Z,73.07
2018-12-10T11:10:47.672Z,73.39
2018-12-10T11:11:47.772Z,74.12
2018-12-10T11:12:47.987Z,73.65
2018-12-10T11:13:48.033Z,74.31
2018-12-10T11:14:48.364Z,74.27
2018-12-10T11:15:48.426Z,75.13
2018-12-10T11:16:48.640Z,75.95
2018-12-10T11:17:48.703Z,75.76
2018-12-10T11:18:48.896Z,76.71
2018-12-10T11:19:49.069Z,77.09
2018-12-10T11:20:49.258Z,77.56
2018-12-10T11:21:49.452Z,78.04
2018-12-10T11:22:49.629Z,78.38
2018-12-10T11:23:49.817Z,78.61
2018-12-10T11:24:50.038Z,78.48
2018-12-10T11:25:50.482Z,78.48
2018-12-10T11:26:50.338Z,78.57
2018-12-10T11:27:50.483Z,78.57
2018-12-10T11:28:50.575Z,78.86
2018-12-10T11:29:50.774Z,79.05
2018-12-10T11:30:50.998Z,79.14
2018-12-10T11:31:51.187Z,78.86
2018-12-10T11:32:51.369Z,79.24
2018-12-10T11:33:51.548Z,79.81
2018-12-10T11:34:51.754Z,79.72
2018-12-10T11:35:51.939Z,80.57
2018-12-10T11:36:52.141Z,80.47
2018-12-10T11:37:52.357Z,81.20
2018-12-10T11:38:57.945Z,81.20
2018-12-10T11:39:52.774Z,81.29
2018-12-10T11:40:53.007Z,81.10
2018-12-10T11:41:53.086Z,81.10
2018-12-10T11:42:53.302Z,80.82
2018-12-10T11:43:53.490Z,81.48
2018-12-10T11:44:53.665Z,81.43
2018-12-10T11:45:53.842Z,81.43
2018-12-10T11:46:54.047Z,80.95
2018-12-10T11:47:54.260Z,80.66
2018-12-10T11:48:54.450Z,80.38
2018-12-10T11:49:54.668Z,80.19
2018-12-10T11:50:54.839Z,80.29
2018-12-10T11:51:55.093Z,80.00
2018-12-10T11:52:55.180Z,79.81
2018-12-10T11:53:57.723Z,80.47
2018-12-10T11:54:56.085Z,79.81
2018-12-10T11:55:57.688Z,79.91
2018-12-10T11:56:55.874Z,79.66
2018-12-10T11:57:56.009Z,79.66
2018-12-10T11:58:56.153Z,79.19
2018-12-10T11:59:56.230Z,78.14
2018-12-10T12:00:56.312Z,77.19
2018-12-10T12:01:56.503Z,77.37
2018-12-10T12:02:56.683Z,77.66
2018-12-10T12:03:56.912Z,78.33
2018-12-10T12:04:57.103Z,79.19
2018-12-10T12:05:57.286Z,78.86
2018-12-10T12:06:57.497Z,79.14
2018-12-10T12:07:57.659Z,79.14
2018-12-10T12:08:57.871Z,80.19
2018-12-10T12:09:57.990Z,80.42
2018-12-10T12:10:58.070Z,78.99
2018-12-10T12:11:58.284Z,77.80
2018-12-10T12:12:58.485Z,76.59
2018-12-10T12:13:58.668Z,76.88
2018-12-10T12:14:58.837Z,75.49
2018-12-10T12:15:59.042Z,74.44
2018-12-10T12:16:59.235Z,74.79
2018-12-10T12:17:59.444Z,75.23
2018-12-10T12:18:59.567Z,75.60
2018-12-10T12:19:59.667Z,75.95
2018-12-10T12:20:59.908Z,76.71
2018-12-10T12:22:04.999Z,77.56
2018-12-10T12:23:00.247Z,78.04
2018-12-10T12:24:00.434Z,78.71
2018-12-10T12:25:00.629Z,79.19
2018-12-10T12:26:00.740Z,78.99
2018-12-10T12:27:01.122Z,79.19
2018-12-10T12:28:01.136Z,79.57
2018-12-10T12:29:01.256Z,80.23
2018-12-10T12:30:01.346Z,80.47
2018-12-10T12:31:01.461Z,80.33
2018-12-10T12:32:01.660Z,79.72
2018-12-10T12:33:01.840Z,79.72
2018-12-10T12:34:02.043Z,79.52
2018-12-10T12:35:02.216Z,79.72
2018-12-10T12:36:02.425Z,80.57
2018-12-10T12:37:03.313Z,80.95
2018-12-10T12:38:02.732Z,81.33
2018-12-10T12:39:02.901Z,81.43
2018-12-10T12:40:03.066Z,81.14
2018-12-10T12:41:03.306Z,81.90
2018-12-10T12:42:03.369Z,82.48
2018-12-10T12:43:07.035Z,82.38
2018-12-10T12:44:03.758Z,82.48
2018-12-10T12:45:03.906Z,82.28
2018-12-10T12:46:04.071Z,83.33
2018-12-10T12:47:04.324Z,82.86
2018-12-10T12:48:04.406Z,83.04
2018-12-10T12:49:04.594Z,83.42
2018-12-10T12:50:04.754Z,83.62
2018-12-10T12:51:04.840Z,83.52
2018-12-10T12:52:04.968Z,83.90
2018-12-10T12:53:05.071Z,83.62
2018-12-10T12:54:05.274Z,83.76
2018-12-10T12:55:05.512Z,84.24
2018-12-10T12:56:05.660Z,84.91